sensor_id;sensor_type;location;lat;lon;timestamp;temperature;humidity
13898;DHT22;7019;50.766;4.474;2023-07-20T00:01:54;15.40;99.90
13898;DHT22;7019;50.766;4.474;2023-07-20T00:04:21;15.40;99.90
13898;DHT22;7019;50.766;4.474;2023-07-20T00:06:48;15.40;99.90
13898;DHT22;7019;50.766;4.474;2023-07-20T00:09:16;15.40;99.90
13898;DHT22;7019;50.766;4.474;2023-07-20T00:11:49;15.30;99.90
13898;DHT22;7019;50.766;4.474;2023-07-20T00:14:16;15.40;99.90
13898;DHT22;7019;50.766;4.474;2023-07-20T00:16:45;15.40;99.90
13898;DHT22;7019;50.766;4.474;2023-07-20T00:19:15;15.40;99.90
13898;DHT22;7019;50.766;4.474;2023-07-20T00:21:42;15.40;99.90
13898;DHT22;7019;50.766;4.474;2023-07-20T00:24:09;15.50;99.90
13898;DHT22;7019;50.766;4.474;2023-07-20T00:26:38;15.50;99.90
13898;DHT22;7019;50.766;4.474;2023-07-20T00:29:05;15.50;99.90
13898;DHT22;7019;50.766;4.474;2023-07-20T00:31:32;15.60;99.90
13898;DHT22;7019;50.766;4.474;2023-07-20T00:34:00;15.60;99.90
13898;DHT22;7019;50.766;4.474;2023-07-20T00:36:27;15.60;99.90
13898;DHT22;7019;50.766;4.474;2023-07-20T00:38:54;15.60;99.90
13898;DHT22;7019;50.766;4.474;2023-07-20T00:41:22;15.60;99.90
13898;DHT22;7019;50.766;4.474;2023-07-20T00:43:50;15.60;99.90
13898;DHT22;7019;50.766;4.474;2023-07-20T00:46:20;15.60;99.90
13898;DHT22;7019;50.766;4.474;2023-07-20T00:48:49;15.60;99.90
13898;DHT22;7019;50.766;4.474;2023-07-20T00:51:16;15.60;99.90
13898;DHT22;7019;50.766;4.474;2023-07-20T00:53:43;15.60;99.90
13898;DHT22;7019;50.766;4.474;2023-07-20T00:56:10;15.60;99.90
13898;DHT22;7019;50.766;4.474;2023-07-20T00:58:38;15.60;99.90
13898;DHT22;7019;50.766;4.474;2023-07-20T01:01:07;15.60;99.90
13898;DHT22;7019;50.766;4.474;2023-07-20T01:03:34;15.50;99.90
13898;DHT22;7019;50.766;4.474;2023-07-20T01:06:14;15.50;99.90
13898;DHT22;7019;50.766;4.474;2023-07-20T01:08:49;15.40;99.90
13898;DHT22;7019;50.766;4.474;2023-07-20T01:11:26;15.40;99.90
13898;DHT22;7019;50.766;4.474;2023-07-20T01:13:55;15.30;99.90
13898;DHT22;7019;50.766;4.474;2023-07-20T01:16:24;15.20;99.90
13898;DHT22;7019;50.766;4.474;2023-07-20T01:18:51;15.20;99.90
13898;DHT22;7019;50.766;4.474;2023-07-20T01:21:22;15.20;99.90
13898;DHT22;7019;50.766;4.474;2023-07-20T01:24:11;15.20;99.90
13898;DHT22;7019;50.766;4.474;2023-07-20T01:27:10;15.10;99.90
13898;DHT22;7019;50.766;4.474;2023-07-20T01:29:54;15.10;99.90
13898;DHT22;7019;50.766;4.474;2023-07-20T01:32:25;15.10;99.90
13898;DHT22;7019;50.766;4.474;2023-07-20T01:34:54;15.10;99.90
13898;DHT22;7019;50.766;4.474;2023-07-20T01:37:22;15.10;99.90
13898;DHT22;7019;50.766;4.474;2023-07-20T01:39:54;15.20;99.90
13898;DHT22;7019;50.766;4.474;2023-07-20T01:42:22;15.20;99.90
13898;DHT22;7019;50.766;4.474;2023-07-20T01:44:50;15.20;99.90
13898;DHT22;7019;50.766;4.474;2023-07-20T01:47:18;15.10;99.90
13898;DHT22;7019;50.766;4.474;2023-07-20T01:49:46;15.20;99.90
13898;DHT22;7019;50.766;4.474;2023-07-20T01:52:13;15.20;99.90
13898;DHT22;7019;50.766;4.474;2023-07-20T01:54:40;15.20;99.90
13898;DHT22;7019;50.766;4.474;2023-07-20T01:57:07;15.20;99.90
13898;DHT22;7019;50.766;4.474;2023-07-20T01:59:35;15.20;99.90
13898;DHT22;7019;50.766;4.474;2023-07-20T02:02:02;15.30;99.90
13898;DHT22;7019;50.766;4.474;2023-07-20T02:04:29;15.30;99.90
13898;DHT22;7019;50.766;4.474;2023-07-20T02:06:57;15.30;99.90
13898;DHT22;7019;50.766;4.474;2023-07-20T02:09:25;15.30;99.90
13898;DHT22;7019;50.766;4.474;2023-07-20T02:11:52;15.30;99.90
13898;DHT22;7019;50.766;4.474;2023-07-20T02:14:19;15.20;99.90
13898;DHT22;7019;50.766;4.474;2023-07-20T02:16:48;15.20;99.90
13898;DHT22;7019;50.766;4.474;2023-07-20T02:19:17;15.20;99.90
13898;DHT22;7019;50.766;4.474;2023-07-20T02:21:44;15.20;99.90
13898;DHT22;7019;50.766;4.474;2023-07-20T02:24:13;15.20;99.90
13898;DHT22;7019;50.766;4.474;2023-07-20T02:26:40;15.20;99.90
13898;DHT22;7019;50.766;4.474;2023-07-20T02:29:08;15.20;99.90
13898;DHT22;7019;50.766;4.474;2023-07-20T02:31:37;15.20;99.90
13898;DHT22;7019;50.766;4.474;2023-07-20T02:34:05;15.20;99.90
13898;DHT22;7019;50.766;4.474;2023-07-20T02:36:32;15.20;99.90
13898;DHT22;7019;50.766;4.474;2023-07-20T02:38:59;15.20;99.90
13898;DHT22;7019;50.766;4.474;2023-07-20T02:41:29;15.20;99.90
13898;DHT22;7019;50.766;4.474;2023-07-20T02:43:56;15.20;99.90
13898;DHT22;7019;50.766;4.474;2023-07-20T02:46:23;15.20;99.90
13898;DHT22;7019;50.766;4.474;2023-07-20T02:48:50;15.20;99.90
13898;DHT22;7019;50.766;4.474;2023-07-20T02:51:17;15.20;99.90
13898;DHT22;7019;50.766;4.474;2023-07-20T02:53:44;15.20;99.90
13898;DHT22;7019;50.766;4.474;2023-07-20T02:56:11;15.20;99.90
13898;DHT22;7019;50.766;4.474;2023-07-20T02:58:42;15.20;99.90
13898;DHT22;7019;50.766;4.474;2023-07-20T03:01:11;15.20;99.90
13898;DHT22;7019;50.766;4.474;2023-07-20T03:03:38;15.20;99.90
13898;DHT22;7019;50.766;4.474;2023-07-20T03:06:05;15.20;99.90
13898;DHT22;7019;50.766;4.474;2023-07-20T03:08:34;15.20;99.90
13898;DHT22;7019;50.766;4.474;2023-07-20T03:11:01;15.20;99.90
13898;DHT22;7019;50.766;4.474;2023-07-20T03:13:28;15.30;99.90
13898;DHT22;7019;50.766;4.474;2023-07-20T03:15:57;15.20;99.90
13898;DHT22;7019;50.766;4.474;2023-07-20T03:18:24;15.30;99.90
13898;DHT22;7019;50.766;4.474;2023-07-20T03:20:51;15.20;99.90
13898;DHT22;7019;50.766;4.474;2023-07-20T03:23:18;15.20;99.90
13898;DHT22;7019;50.766;4.474;2023-07-20T03:25:45;15.30;99.90
13898;DHT22;7019;50.766;4.474;2023-07-20T03:28:12;15.30;99.90
13898;DHT22;7019;50.766;4.474;2023-07-20T03:30:39;15.30;99.90
13898;DHT22;7019;50.766;4.474;2023-07-20T03:33:07;15.30;99.90
13898;DHT22;7019;50.766;4.474;2023-07-20T03:35:34;15.40;99.90
13898;DHT22;7019;50.766;4.474;2023-07-20T03:38:01;15.30;99.90
13898;DHT22;7019;50.766;4.474;2023-07-20T03:40:28;15.30;99.90
13898;DHT22;7019;50.766;4.474;2023-07-20T03:42:55;15.30;99.90
13898;DHT22;7019;50.766;4.474;2023-07-20T03:45:22;15.30;99.90
13898;DHT22;7019;50.766;4.474;2023-07-20T03:47:50;15.20;99.90
13898;DHT22;7019;50.766;4.474;2023-07-20T03:50:18;15.30;99.90
13898;DHT22;7019;50.766;4.474;2023-07-20T03:52:45;15.30;99.90
13898;DHT22;7019;50.766;4.474;2023-07-20T03:55:12;15.30;99.90
13898;DHT22;7019;50.766;4.474;2023-07-20T03:57:39;15.30;99.90
13898;DHT22;7019;50.766;4.474;2023-07-20T04:00:07;15.30;99.90
13898;DHT22;7019;50.766;4.474;2023-07-20T04:02:35;15.30;99.90
13898;DHT22;7019;50.766;4.474;2023-07-20T04:05:02;15.40;99.90
13898;DHT22;7019;50.766;4.474;2023-07-20T04:07:30;15.30;99.90
13898;DHT22;7019;50.766;4.474;2023-07-20T04:09:57;15.40;99.90
13898;DHT22;7019;50.766;4.474;2023-07-20T04:12:24;15.40;99.90
13898;DHT22;7019;50.766;4.474;2023-07-20T04:14:51;15.30;99.90
13898;DHT22;7019;50.766;4.474;2023-07-20T04:17:18;15.40;99.90
13898;DHT22;7019;50.766;4.474;2023-07-20T04:19:45;15.40;99.90
13898;DHT22;7019;50.766;4.474;2023-07-20T04:22:13;15.40;99.90
13898;DHT22;7019;50.766;4.474;2023-07-20T04:24:42;15.40;99.90
13898;DHT22;7019;50.766;4.474;2023-07-20T04:27:09;15.40;99.90
13898;DHT22;7019;50.766;4.474;2023-07-20T04:29:36;15.40;99.90
13898;DHT22;7019;50.766;4.474;2023-07-20T04:32:04;15.40;99.90
13898;DHT22;7019;50.766;4.474;2023-07-20T04:34:31;15.40;99.90
13898;DHT22;7019;50.766;4.474;2023-07-20T04:37:03;15.50;99.90
13898;DHT22;7019;50.766;4.474;2023-07-20T04:39:30;15.50;99.90
13898;DHT22;7019;50.766;4.474;2023-07-20T04:41:58;15.50;99.90
13898;DHT22;7019;50.766;4.474;2023-07-20T04:44:25;15.50;99.90
13898;DHT22;7019;50.766;4.474;2023-07-20T04:46:52;15.60;99.90
13898;DHT22;7019;50.766;4.474;2023-07-20T04:49:20;15.60;99.90
13898;DHT22;7019;50.766;4.474;2023-07-20T04:51:47;15.60;99.90
13898;DHT22;7019;50.766;4.474;2023-07-20T04:54:14;15.70;99.90
13898;DHT22;7019;50.766;4.474;2023-07-20T04:56:42;15.70;99.90
13898;DHT22;7019;50.766;4.474;2023-07-20T04:59:11;15.80;99.90
13898;DHT22;7019;50.766;4.474;2023-07-20T05:01:38;15.80;99.90
13898;DHT22;7019;50.766;4.474;2023-07-20T05:04:05;15.90;99.90
13898;DHT22;7019;50.766;4.474;2023-07-20T05:06:32;16.00;99.90
13898;DHT22;7019;50.766;4.474;2023-07-20T05:08:59;16.00;99.90
13898;DHT22;7019;50.766;4.474;2023-07-20T05:11:26;16.10;99.90
13898;DHT22;7019;50.766;4.474;2023-07-20T05:13:53;16.10;99.90
13898;DHT22;7019;50.766;4.474;2023-07-20T05:16:22;16.20;99.90
13898;DHT22;7019;50.766;4.474;2023-07-20T05:18:49;16.20;99.90
13898;DHT22;7019;50.766;4.474;2023-07-20T05:21:16;16.30;99.90
13898;DHT22;7019;50.766;4.474;2023-07-20T05:23:44;16.30;99.90
13898;DHT22;7019;50.766;4.474;2023-07-20T05:26:11;16.30;99.90
13898;DHT22;7019;50.766;4.474;2023-07-20T05:28:38;16.30;99.90
13898;DHT22;7019;50.766;4.474;2023-07-20T05:31:06;16.40;99.90
13898;DHT22;7019;50.766;4.474;2023-07-20T05:33:34;16.40;99.90
13898;DHT22;7019;50.766;4.474;2023-07-20T05:36:02;16.40;99.90
13898;DHT22;7019;50.766;4.474;2023-07-20T05:38:29;16.40;99.90
13898;DHT22;7019;50.766;4.474;2023-07-20T05:40:59;16.50;99.90
13898;DHT22;7019;50.766;4.474;2023-07-20T05:43:26;16.50;99.90
13898;DHT22;7019;50.766;4.474;2023-07-20T05:45:53;16.50;99.90
13898;DHT22;7019;50.766;4.474;2023-07-20T05:48:20;16.50;99.90
13898;DHT22;7019;50.766;4.474;2023-07-20T05:50:49;16.60;99.90
13898;DHT22;7019;50.766;4.474;2023-07-20T05:53:16;16.60;99.90
13898;DHT22;7019;50.766;4.474;2023-07-20T05:55:43;16.50;99.90
13898;DHT22;7019;50.766;4.474;2023-07-20T05:58:10;16.50;99.90
13898;DHT22;7019;50.766;4.474;2023-07-20T06:00:37;16.50;99.90
13898;DHT22;7019;50.766;4.474;2023-07-20T06:03:04;16.60;99.90
13898;DHT22;7019;50.766;4.474;2023-07-20T06:05:31;16.60;99.90
13898;DHT22;7019;50.766;4.474;2023-07-20T06:07:59;16.70;99.90
13898;DHT22;7019;50.766;4.474;2023-07-20T06:10:27;16.70;99.90
13898;DHT22;7019;50.766;4.474;2023-07-20T06:12:54;16.80;99.90
13898;DHT22;7019;50.766;4.474;2023-07-20T06:15:26;16.80;99.90
13898;DHT22;7019;50.766;4.474;2023-07-20T06:17:54;16.80;99.90
13898;DHT22;7019;50.766;4.474;2023-07-20T06:20:22;16.80;99.90
13898;DHT22;7019;50.766;4.474;2023-07-20T06:22:49;16.80;99.90
13898;DHT22;7019;50.766;4.474;2023-07-20T06:25:18;16.70;99.90
13898;DHT22;7019;50.766;4.474;2023-07-20T06:27:45;16.80;99.90
13898;DHT22;7019;50.766;4.474;2023-07-20T06:30:12;16.80;99.90
13898;DHT22;7019;50.766;4.474;2023-07-20T06:32:39;16.90;99.90
13898;DHT22;7019;50.766;4.474;2023-07-20T06:35:07;16.90;99.90
13898;DHT22;7019;50.766;4.474;2023-07-20T06:37:34;17.00;99.90
13898;DHT22;7019;50.766;4.474;2023-07-20T06:40:02;17.10;99.90
13898;DHT22;7019;50.766;4.474;2023-07-20T06:42:30;17.10;99.90
13898;DHT22;7019;50.766;4.474;2023-07-20T06:44:58;17.20;99.90
13898;DHT22;7019;50.766;4.474;2023-07-20T06:47:25;17.30;99.90
13898;DHT22;7019;50.766;4.474;2023-07-20T06:49:52;17.30;99.90
13898;DHT22;7019;50.766;4.474;2023-07-20T06:52:19;17.30;99.90
13898;DHT22;7019;50.766;4.474;2023-07-20T06:54:46;17.30;99.90
13898;DHT22;7019;50.766;4.474;2023-07-20T06:57:13;17.40;99.90
13898;DHT22;7019;50.766;4.474;2023-07-20T06:59:42;17.40;99.90
13898;DHT22;7019;50.766;4.474;2023-07-20T07:02:09;17.50;99.90
13898;DHT22;7019;50.766;4.474;2023-07-20T07:04:36;17.50;99.90
13898;DHT22;7019;50.766;4.474;2023-07-20T07:07:03;17.50;99.90
13898;DHT22;7019;50.766;4.474;2023-07-20T07:09:30;17.60;99.90
13898;DHT22;7019;50.766;4.474;2023-07-20T07:11:57;17.60;99.90
13898;DHT22;7019;50.766;4.474;2023-07-20T07:14:25;17.60;99.90
13898;DHT22;7019;50.766;4.474;2023-07-20T07:16:53;17.60;99.90
13898;DHT22;7019;50.766;4.474;2023-07-20T07:19:20;17.70;99.90
13898;DHT22;7019;50.766;4.474;2023-07-20T07:21:47;17.80;99.90
13898;DHT22;7019;50.766;4.474;2023-07-20T07:24:14;17.90;99.90
13898;DHT22;7019;50.766;4.474;2023-07-20T07:26:41;18.50;99.90
13898;DHT22;7019;50.766;4.474;2023-07-20T07:29:08;19.40;99.90
13898;DHT22;7019;50.766;4.474;2023-07-20T07:31:35;20.60;99.90
13898;DHT22;7019;50.766;4.474;2023-07-20T07:34:05;21.60;99.90
13898;DHT22;7019;50.766;4.474;2023-07-20T07:36:33;22.50;99.90
13898;DHT22;7019;50.766;4.474;2023-07-20T07:39:00;22.80;99.90
13898;DHT22;7019;50.766;4.474;2023-07-20T07:41:27;22.50;99.90
13898;DHT22;7019;50.766;4.474;2023-07-20T07:43:54;22.30;99.90
13898;DHT22;7019;50.766;4.474;2023-07-20T07:46:21;22.50;99.90
13898;DHT22;7019;50.766;4.474;2023-07-20T07:48:48;22.70;99.90
13898;DHT22;7019;50.766;4.474;2023-07-20T07:51:16;22.40;99.90
13898;DHT22;7019;50.766;4.474;2023-07-20T07:53:45;22.00;99.90
13898;DHT22;7019;50.766;4.474;2023-07-20T07:56:12;22.60;99.90
13898;DHT22;7019;50.766;4.474;2023-07-20T07:58:39;23.10;99.90
13898;DHT22;7019;50.766;4.474;2023-07-20T08:01:06;23.30;99.90
13898;DHT22;7019;50.766;4.474;2023-07-20T08:03:33;23.10;99.90
13898;DHT22;7019;50.766;4.474;2023-07-20T08:06:02;23.10;99.90
13898;DHT22;7019;50.766;4.474;2023-07-20T08:08:31;22.90;99.90
13898;DHT22;7019;50.766;4.474;2023-07-20T08:10:58;22.40;99.90
13898;DHT22;7019;50.766;4.474;2023-07-20T08:13:27;21.90;99.90
13898;DHT22;7019;50.766;4.474;2023-07-20T08:15:54;21.60;99.90
13898;DHT22;7019;50.766;4.474;2023-07-20T08:18:21;21.50;99.90
13898;DHT22;7019;50.766;4.474;2023-07-20T08:20:48;21.20;99.90
13898;DHT22;7019;50.766;4.474;2023-07-20T08:23:16;21.50;99.90
13898;DHT22;7019;50.766;4.474;2023-07-20T08:25:44;22.40;99.90
13898;DHT22;7019;50.766;4.474;2023-07-20T08:28:11;23.00;99.90
13898;DHT22;7019;50.766;4.474;2023-07-20T08:30:43;23.30;99.90
13898;DHT22;7019;50.766;4.474;2023-07-20T08:33:12;22.60;99.90
13898;DHT22;7019;50.766;4.474;2023-07-20T08:35:39;22.50;99.90
13898;DHT22;7019;50.766;4.474;2023-07-20T08:38:06;22.50;99.90
13898;DHT22;7019;50.766;4.474;2023-07-20T08:40:39;22.20;99.90
13898;DHT22;7019;50.766;4.474;2023-07-20T08:43:07;22.00;99.90
13898;DHT22;7019;50.766;4.474;2023-07-20T08:45:35;21.80;99.90
13898;DHT22;7019;50.766;4.474;2023-07-20T08:48:04;21.80;99.90
13898;DHT22;7019;50.766;4.474;2023-07-20T08:50:32;22.30;99.90
13898;DHT22;7019;50.766;4.474;2023-07-20T08:53:00;23.40;99.90
13898;DHT22;7019;50.766;4.474;2023-07-20T08:55:29;24.40;99.90
13898;DHT22;7019;50.766;4.474;2023-07-20T08:57:57;25.00;99.90
13898;DHT22;7019;50.766;4.474;2023-07-20T09:00:26;25.80;99.90
13898;DHT22;7019;50.766;4.474;2023-07-20T09:02:55;26.30;99.90
13898;DHT22;7019;50.766;4.474;2023-07-20T09:05:24;25.80;99.90
13898;DHT22;7019;50.766;4.474;2023-07-20T09:07:51;25.30;99.90
13898;DHT22;7019;50.766;4.474;2023-07-20T09:10:21;24.70;99.90
13898;DHT22;7019;50.766;4.474;2023-07-20T09:12:48;24.30;99.90
13898;DHT22;7019;50.766;4.474;2023-07-20T09:15:15;24.20;99.90
13898;DHT22;7019;50.766;4.474;2023-07-20T09:17:47;23.90;99.90
13898;DHT22;7019;50.766;4.474;2023-07-20T09:20:16;24.00;99.90
13898;DHT22;7019;50.766;4.474;2023-07-20T09:22:44;24.40;99.90
13898;DHT22;7019;50.766;4.474;2023-07-20T09:25:12;24.50;99.90
13898;DHT22;7019;50.766;4.474;2023-07-20T09:27:41;25.00;99.90
13898;DHT22;7019;50.766;4.474;2023-07-20T09:30:09;25.90;99.90
13898;DHT22;7019;50.766;4.474;2023-07-20T09:32:40;26.00;99.90
13898;DHT22;7019;50.766;4.474;2023-07-20T09:35:14;26.40;99.90
13898;DHT22;7019;50.766;4.474;2023-07-20T09:37:46;26.80;99.90
13898;DHT22;7019;50.766;4.474;2023-07-20T09:40:18;27.50;99.90
13898;DHT22;7019;50.766;4.474;2023-07-20T09:42:45;27.70;99.60
13898;DHT22;7019;50.766;4.474;2023-07-20T09:45:13;27.40;97.30
13898;DHT22;7019;50.766;4.474;2023-07-20T09:47:40;26.50;99.90
13898;DHT22;7019;50.766;4.474;2023-07-20T09:50:08;26.40;99.90
13898;DHT22;7019;50.766;4.474;2023-07-20T09:52:42;25.90;99.90
13898;DHT22;7019;50.766;4.474;2023-07-20T09:55:10;25.40;99.50
13898;DHT22;7019;50.766;4.474;2023-07-20T09:57:38;25.10;99.90
13898;DHT22;7019;50.766;4.474;2023-07-20T10:00:07;25.30;99.90
13898;DHT22;7019;50.766;4.474;2023-07-20T10:02:43;25.60;99.90
13898;DHT22;7019;50.766;4.474;2023-07-20T10:05:12;25.80;99.90
13898;DHT22;7019;50.766;4.474;2023-07-20T10:07:44;25.40;99.70
13898;DHT22;7019;50.766;4.474;2023-07-20T10:10:14;25.60;98.20
13898;DHT22;7019;50.766;4.474;2023-07-20T10:12:43;25.80;99.90
13898;DHT22;7019;50.766;4.474;2023-07-20T10:15:19;26.10;98.70
13898;DHT22;7019;50.766;4.474;2023-07-20T10:18:05;26.50;97.80
13898;DHT22;7019;50.766;4.474;2023-07-20T10:20:36;26.80;99.60
13898;DHT22;7019;50.766;4.474;2023-07-20T10:23:09;26.40;98.20
13898;DHT22;7019;50.766;4.474;2023-07-20T10:25:37;26.20;98.80
13898;DHT22;7019;50.766;4.474;2023-07-20T10:28:07;25.60;98.40
13898;DHT22;7019;50.766;4.474;2023-07-20T10:30:34;25.10;97.80
13898;DHT22;7019;50.766;4.474;2023-07-20T10:33:02;25.00;99.20
13898;DHT22;7019;50.766;4.474;2023-07-20T10:35:30;25.40;99.30
13898;DHT22;7019;50.766;4.474;2023-07-20T10:38:01;26.10;99.60
13898;DHT22;7019;50.766;4.474;2023-07-20T10:40:34;26.20;98.00
13898;DHT22;7019;50.766;4.474;2023-07-20T10:43:03;25.60;98.70
13898;DHT22;7019;50.766;4.474;2023-07-20T10:45:41;25.40;99.30
13898;DHT22;7019;50.766;4.474;2023-07-20T10:48:19;25.10;99.90
13898;DHT22;7019;50.766;4.474;2023-07-20T10:51:09;25.10;99.90
13898;DHT22;7019;50.766;4.474;2023-07-20T10:53:36;25.00;99.90
13898;DHT22;7019;50.766;4.474;2023-07-20T10:56:08;25.10;99.90
13898;DHT22;7019;50.766;4.474;2023-07-20T10:58:37;25.10;98.90
13898;DHT22;7019;50.766;4.474;2023-07-20T11:01:04;25.10;99.60
13898;DHT22;7019;50.766;4.474;2023-07-20T11:03:33;25.20;99.90
13898;DHT22;7019;50.766;4.474;2023-07-20T11:06:30;25.10;99.90
13898;DHT22;7019;50.766;4.474;2023-07-20T11:09:05;25.00;99.80
13898;DHT22;7019;50.766;4.474;2023-07-20T11:11:35;25.30;99.30
13898;DHT22;7019;50.766;4.474;2023-07-20T11:14:04;25.60;99.90
13898;DHT22;7019;50.766;4.474;2023-07-20T11:16:39;25.80;99.70
13898;DHT22;7019;50.766;4.474;2023-07-20T11:19:13;26.00;99.60
13898;DHT22;7019;50.766;4.474;2023-07-20T11:21:42;26.10;98.70
13898;DHT22;7019;50.766;4.474;2023-07-20T11:24:10;26.40;98.20
13898;DHT22;7019;50.766;4.474;2023-07-20T11:26:48;26.80;96.90
13898;DHT22;7019;50.766;4.474;2023-07-20T11:29:16;27.00;98.20
13898;DHT22;7019;50.766;4.474;2023-07-20T11:31:44;26.80;95.50
13898;DHT22;7019;50.766;4.474;2023-07-20T11:34:13;26.60;97.00
13898;DHT22;7019;50.766;4.474;2023-07-20T11:36:41;26.70;98.30
13898;DHT22;7019;50.766;4.474;2023-07-20T11:39:09;26.80;98.00
13898;DHT22;7019;50.766;4.474;2023-07-20T11:41:36;26.80;97.40
13898;DHT22;7019;50.766;4.474;2023-07-20T11:44:05;26.60;97.90
13898;DHT22;7019;50.766;4.474;2023-07-20T11:46:33;26.40;97.70
13898;DHT22;7019;50.766;4.474;2023-07-20T11:49:01;26.10;98.30
13898;DHT22;7019;50.766;4.474;2023-07-20T11:51:29;25.90;98.40
13898;DHT22;7019;50.766;4.474;2023-07-20T11:53:58;25.70;97.90
13898;DHT22;7019;50.766;4.474;2023-07-20T11:56:26;25.80;99.10
13898;DHT22;7019;50.766;4.474;2023-07-20T11:58:57;25.40;97.50
13898;DHT22;7019;50.766;4.474;2023-07-20T12:01:29;25.40;98.00
13898;DHT22;7019;50.766;4.474;2023-07-20T12:03:59;25.30;98.00
13898;DHT22;7019;50.766;4.474;2023-07-20T12:06:28;25.40;98.50
13898;DHT22;7019;50.766;4.474;2023-07-20T12:08:56;25.60;99.80
13898;DHT22;7019;50.766;4.474;2023-07-20T12:11:34;25.90;98.30
13898;DHT22;7019;50.766;4.474;2023-07-20T12:14:01;26.20;97.40
13898;DHT22;7019;50.766;4.474;2023-07-20T12:16:30;26.60;97.90
13898;DHT22;7019;50.766;4.474;2023-07-20T12:19:01;27.10;97.50
13898;DHT22;7019;50.766;4.474;2023-07-20T12:21:29;27.40;97.40
13898;DHT22;7019;50.766;4.474;2023-07-20T12:23:57;27.60;95.20
13898;DHT22;7019;50.766;4.474;2023-07-20T12:26:25;27.20;93.60
13898;DHT22;7019;50.766;4.474;2023-07-20T12:28:52;27.10;96.10
13898;DHT22;7019;50.766;4.474;2023-07-20T12:31:20;27.10;95.20
13898;DHT22;7019;50.766;4.474;2023-07-20T12:33:50;26.80;97.20
13898;DHT22;7019;50.766;4.474;2023-07-20T12:36:17;26.20;95.20
13898;DHT22;7019;50.766;4.474;2023-07-20T12:38:44;25.90;97.80
13898;DHT22;7019;50.766;4.474;2023-07-20T12:41:12;25.70;97.70
13898;DHT22;7019;50.766;4.474;2023-07-20T12:43:40;25.40;99.30
13898;DHT22;7019;50.766;4.474;2023-07-20T12:46:07;24.90;98.00
13898;DHT22;7019;50.766;4.474;2023-07-20T12:48:36;24.70;98.30
13898;DHT22;7019;50.766;4.474;2023-07-20T12:51:05;24.50;99.30
13898;DHT22;7019;50.766;4.474;2023-07-20T12:53:32;24.60;99.10
13898;DHT22;7019;50.766;4.474;2023-07-20T12:55:59;24.80;99.90
13898;DHT22;7019;50.766;4.474;2023-07-20T12:58:26;24.80;97.50
13898;DHT22;7019;50.766;4.474;2023-07-20T13:00:53;24.80;98.20
13898;DHT22;7019;50.766;4.474;2023-07-20T13:03:21;25.00;98.80
13898;DHT22;7019;50.766;4.474;2023-07-20T13:05:48;25.10;99.40
13898;DHT22;7019;50.766;4.474;2023-07-20T13:08:17;25.20;98.90
13898;DHT22;7019;50.766;4.474;2023-07-20T13:10:45;25.20;99.80
13898;DHT22;7019;50.766;4.474;2023-07-20T13:13:12;25.20;99.90
13898;DHT22;7019;50.766;4.474;2023-07-20T13:15:44;25.00;99.90
13898;DHT22;7019;50.766;4.474;2023-07-20T13:18:12;24.90;99.90
13898;DHT22;7019;50.766;4.474;2023-07-20T13:20:39;24.80;99.90
13898;DHT22;7019;50.766;4.474;2023-07-20T13:23:06;24.70;99.90
13898;DHT22;7019;50.766;4.474;2023-07-20T13:25:34;24.60;99.90
13898;DHT22;7019;50.766;4.474;2023-07-20T13:28:02;24.50;99.90
13898;DHT22;7019;50.766;4.474;2023-07-20T13:30:31;24.40;99.90
13898;DHT22;7019;50.766;4.474;2023-07-20T13:32:59;24.50;99.90
13898;DHT22;7019;50.766;4.474;2023-07-20T13:35:26;24.60;99.90
13898;DHT22;7019;50.766;4.474;2023-07-20T13:37:53;24.70;99.90
13898;DHT22;7019;50.766;4.474;2023-07-20T13:40:20;24.50;98.70
13898;DHT22;7019;50.766;4.474;2023-07-20T13:42:50;24.40;98.80
13898;DHT22;7019;50.766;4.474;2023-07-20T13:45:17;24.50;99.90
13898;DHT22;7019;50.766;4.474;2023-07-20T13:47:44;24.60;99.90
13898;DHT22;7019;50.766;4.474;2023-07-20T13:50:11;24.70;99.90
13898;DHT22;7019;50.766;4.474;2023-07-20T13:52:38;24.70;99.20
13898;DHT22;7019;50.766;4.474;2023-07-20T13:55:06;24.70;99.10
13898;DHT22;7019;50.766;4.474;2023-07-20T13:57:33;24.40;98.30
13898;DHT22;7019;50.766;4.474;2023-07-20T14:00:01;24.10;98.60
13898;DHT22;7019;50.766;4.474;2023-07-20T14:02:29;23.80;98.50
13898;DHT22;7019;50.766;4.474;2023-07-20T14:04:56;23.60;99.70
13898;DHT22;7019;50.766;4.474;2023-07-20T14:07:24;23.50;99.90
13898;DHT22;7019;50.766;4.474;2023-07-20T14:09:51;23.50;99.90
13898;DHT22;7019;50.766;4.474;2023-07-20T14:12:18;23.40;99.90
13898;DHT22;7019;50.766;4.474;2023-07-20T14:14:45;23.20;99.80
13898;DHT22;7019;50.766;4.474;2023-07-20T14:17:13;23.10;99.90
13898;DHT22;7019;50.766;4.474;2023-07-20T14:19:41;23.10;99.90
13898;DHT22;7019;50.766;4.474;2023-07-20T14:22:08;23.00;99.90
13898;DHT22;7019;50.766;4.474;2023-07-20T14:24:35;22.80;99.90
13898;DHT22;7019;50.766;4.474;2023-07-20T14:27:02;22.60;99.90
13898;DHT22;7019;50.766;4.474;2023-07-20T14:29:29;22.50;99.90
13898;DHT22;7019;50.766;4.474;2023-07-20T14:31:57;22.60;99.90
13898;DHT22;7019;50.766;4.474;2023-07-20T14:34:26;22.80;99.90
13898;DHT22;7019;50.766;4.474;2023-07-20T14:36:53;23.00;99.90
13898;DHT22;7019;50.766;4.474;2023-07-20T14:39:20;23.10;99.90
13898;DHT22;7019;50.766;4.474;2023-07-20T14:41:49;23.50;99.90
13898;DHT22;7019;50.766;4.474;2023-07-20T14:44:16;23.80;99.90
13898;DHT22;7019;50.766;4.474;2023-07-20T14:46:43;24.00;99.90
13898;DHT22;7019;50.766;4.474;2023-07-20T14:49:10;24.10;99.90
13898;DHT22;7019;50.766;4.474;2023-07-20T14:51:39;24.00;99.10
13898;DHT22;7019;50.766;4.474;2023-07-20T14:54:09;24.00;99.20
13898;DHT22;7019;50.766;4.474;2023-07-20T14:56:38;23.70;98.70
13898;DHT22;7019;50.766;4.474;2023-07-20T14:59:06;23.70;99.30
13898;DHT22;7019;50.766;4.474;2023-07-20T15:01:33;23.60;99.60
13898;DHT22;7019;50.766;4.474;2023-07-20T15:04:01;23.70;99.90
13898;DHT22;7019;50.766;4.474;2023-07-20T15:06:28;23.60;99.60
13898;DHT22;7019;50.766;4.474;2023-07-20T15:08:57;23.50;99.70
13898;DHT22;7019;50.766;4.474;2023-07-20T15:11:26;23.70;99.90
13898;DHT22;7019;50.766;4.474;2023-07-20T15:13:53;23.70;99.90
13898;DHT22;7019;50.766;4.474;2023-07-20T15:16:20;23.60;99.80
13898;DHT22;7019;50.766;4.474;2023-07-20T15:18:47;23.50;99.70
13898;DHT22;7019;50.766;4.474;2023-07-20T15:21:15;23.50;99.70
13898;DHT22;7019;50.766;4.474;2023-07-20T15:23:42;23.30;99.90
13898;DHT22;7019;50.766;4.474;2023-07-20T15:26:10;23.10;99.80
13898;DHT22;7019;50.766;4.474;2023-07-20T15:28:38;23.00;99.90
13898;DHT22;7019;50.766;4.474;2023-07-20T15:31:05;22.90;99.90
13898;DHT22;7019;50.766;4.474;2023-07-20T15:33:33;22.90;99.90
13898;DHT22;7019;50.766;4.474;2023-07-20T15:36:00;22.90;99.90
13898;DHT22;7019;50.766;4.474;2023-07-20T15:38:27;22.80;99.90
13898;DHT22;7019;50.766;4.474;2023-07-20T15:40:54;22.70;99.90
13898;DHT22;7019;50.766;4.474;2023-07-20T15:43:23;22.60;99.90
13898;DHT22;7019;50.766;4.474;2023-07-20T15:45:51;22.40;99.90
13898;DHT22;7019;50.766;4.474;2023-07-20T15:48:21;22.30;99.90
13898;DHT22;7019;50.766;4.474;2023-07-20T15:50:49;22.10;99.90
13898;DHT22;7019;50.766;4.474;2023-07-20T15:53:17;22.00;99.90